sensor_id;sensor_type;location;lat;lon;timestamp;P1;durP1;ratioP1;P2;durP2;ratioP2
13048;SDS011;6591;51.446;5.404;2024-03-25T00:00:12;13.20;;;4.27;;
13048;SDS011;6591;51.446;5.404;2024-03-25T00:02:40;18.53;;;4.47;;
13048;SDS011;6591;51.446;5.404;2024-03-25T00:05:07;14.53;;;4.37;;
13048;SDS011;6591;51.446;5.404;2024-03-25T00:07:38;13.27;;;3.50;;
13048;SDS011;6591;51.446;5.404;2024-03-25T00:10:04;19.50;;;4.53;;
13048;SDS011;6591;51.446;5.404;2024-03-25T00:12:34;17.10;;;3.70;;
13048;SDS011;6591;51.446;5.404;2024-03-25T00:15:01;12.83;;;4.03;;
13048;SDS011;6591;51.446;5.404;2024-03-25T00:17:27;11.37;;;3.63;;
13048;SDS011;6591;51.446;5.404;2024-03-25T00:19:53;11.67;;;4.07;;
13048;SDS011;6591;51.446;5.404;2024-03-25T00:22:20;18.60;;;4.40;;
13048;SDS011;6591;51.446;5.404;2024-03-25T00:24:47;18.80;;;4.40;;
13048;SDS011;6591;51.446;5.404;2024-03-25T00:27:14;16.43;;;4.27;;
13048;SDS011;6591;51.446;5.404;2024-03-25T00:29:41;17.40;;;4.73;;
13048;SDS011;6591;51.446;5.404;2024-03-25T00:32:07;13.43;;;3.50;;
13048;SDS011;6591;51.446;5.404;2024-03-25T00:34:37;14.87;;;3.53;;
13048;SDS011;6591;51.446;5.404;2024-03-25T00:37:03;11.37;;;3.93;;
13048;SDS011;6591;51.446;5.404;2024-03-25T00:39:30;14.10;;;3.93;;
13048;SDS011;6591;51.446;5.404;2024-03-25T00:42:00;20.77;;;4.80;;
13048;SDS011;6591;51.446;5.404;2024-03-25T00:44:26;15.87;;;4.40;;
13048;SDS011;6591;51.446;5.404;2024-03-25T00:46:52;15.10;;;4.00;;
13048;SDS011;6591;51.446;5.404;2024-03-25T00:49:19;11.57;;;3.90;;
13048;SDS011;6591;51.446;5.404;2024-03-25T00:51:47;14.67;;;4.30;;
13048;SDS011;6591;51.446;5.404;2024-03-25T00:54:13;10.37;;;3.90;;
13048;SDS011;6591;51.446;5.404;2024-03-25T00:56:39;12.90;;;4.30;;
13048;SDS011;6591;51.446;5.404;2024-03-25T00:59:05;15.00;;;4.53;;
13048;SDS011;6591;51.446;5.404;2024-03-25T01:01:32;12.30;;;3.87;;
13048;SDS011;6591;51.446;5.404;2024-03-25T01:04:01;17.00;;;4.30;;
13048;SDS011;6591;51.446;5.404;2024-03-25T01:06:28;15.80;;;4.13;;
13048;SDS011;6591;51.446;5.404;2024-03-25T01:08:55;11.17;;;4.13;;
13048;SDS011;6591;51.446;5.404;2024-03-25T01:11:21;16.17;;;4.07;;
13048;SDS011;6591;51.446;5.404;2024-03-25T01:13:47;16.43;;;4.57;;
13048;SDS011;6591;51.446;5.404;2024-03-25T01:16:15;12.73;;;4.47;;
13048;SDS011;6591;51.446;5.404;2024-03-25T01:18:42;13.43;;;4.40;;
13048;SDS011;6591;51.446;5.404;2024-03-25T01:21:08;12.23;;;3.77;;
13048;SDS011;6591;51.446;5.404;2024-03-25T01:23:35;13.27;;;4.30;;
13048;SDS011;6591;51.446;5.404;2024-03-25T01:26:01;14.73;;;4.77;;
13048;SDS011;6591;51.446;5.404;2024-03-25T01:28:27;14.57;;;4.37;;
13048;SDS011;6591;51.446;5.404;2024-03-25T01:30:56;16.33;;;4.67;;
13048;SDS011;6591;51.446;5.404;2024-03-25T01:33:22;13.60;;;4.60;;
13048;SDS011;6591;51.446;5.404;2024-03-25T01:35:48;14.87;;;4.37;;
13048;SDS011;6591;51.446;5.404;2024-03-25T01:38:14;16.33;;;4.80;;
13048;SDS011;6591;51.446;5.404;2024-03-25T01:40:40;12.40;;;4.17;;
13048;SDS011;6591;51.446;5.404;2024-03-25T01:43:06;13.07;;;3.70;;
13048;SDS011;6591;51.446;5.404;2024-03-25T01:45:36;15.00;;;4.53;;
13048;SDS011;6591;51.446;5.404;2024-03-25T01:48:04;13.87;;;4.13;;
13048;SDS011;6591;51.446;5.404;2024-03-25T01:50:43;15.00;;;4.60;;
13048;SDS011;6591;51.446;5.404;2024-03-25T01:53:11;11.17;;;4.23;;
13048;SDS011;6591;51.446;5.404;2024-03-25T01:55:39;15.97;;;4.63;;
13048;SDS011;6591;51.446;5.404;2024-03-25T01:58:10;16.17;;;4.20;;
13048;SDS011;6591;51.446;5.404;2024-03-25T02:00:36;15.63;;;4.40;;
13048;SDS011;6591;51.446;5.404;2024-03-25T02:03:04;15.23;;;4.60;;
13048;SDS011;6591;51.446;5.404;2024-03-25T02:05:31;11.50;;;4.37;;
13048;SDS011;6591;51.446;5.404;2024-03-25T02:07:59;12.43;;;4.37;;
13048;SDS011;6591;51.446;5.404;2024-03-25T02:10:29;16.23;;;4.80;;
13048;SDS011;6591;51.446;5.404;2024-03-25T02:12:55;18.40;;;5.00;;
13048;SDS011;6591;51.446;5.404;2024-03-25T02:15:21;16.30;;;4.53;;
13048;SDS011;6591;51.446;5.404;2024-03-25T02:17:48;20.30;;;5.50;;
13048;SDS011;6591;51.446;5.404;2024-03-25T02:20:14;12.73;;;4.80;;
13048;SDS011;6591;51.446;5.404;2024-03-25T02:22:41;17.30;;;5.10;;
13048;SDS011;6591;51.446;5.404;2024-03-25T02:25:08;12.90;;;4.13;;
13048;SDS011;6591;51.446;5.404;2024-03-25T02:27:36;14.07;;;4.97;;
13048;SDS011;6591;51.446;5.404;2024-03-25T02:32:35;18.37;;;5.47;;
13048;SDS011;6591;51.446;5.404;2024-03-25T02:35:02;11.83;;;5.03;;
13048;SDS011;6591;51.446;5.404;2024-03-25T02:37:32;12.93;;;4.40;;
13048;SDS011;6591;51.446;5.404;2024-03-25T02:39:59;14.70;;;5.70;;
13048;SDS011;6591;51.446;5.404;2024-03-25T02:42:31;13.03;;;4.93;;
13048;SDS011;6591;51.446;5.404;2024-03-25T02:44:57;12.50;;;5.27;;
13048;SDS011;6591;51.446;5.404;2024-03-25T02:47:25;14.63;;;5.57;;
13048;SDS011;6591;51.446;5.404;2024-03-25T02:49:51;15.57;;;5.37;;
13048;SDS011;6591;51.446;5.404;2024-03-25T02:52:18;15.40;;;5.60;;
13048;SDS011;6591;51.446;5.404;2024-03-25T02:54:45;16.40;;;5.73;;
13048;SDS011;6591;51.446;5.404;2024-03-25T02:57:11;13.13;;;5.20;;
13048;SDS011;6591;51.446;5.404;2024-03-25T02:59:37;9.77;;;5.03;;
13048;SDS011;6591;51.446;5.404;2024-03-25T03:02:03;14.97;;;5.73;;
13048;SDS011;6591;51.446;5.404;2024-03-25T03:04:30;11.80;;;5.23;;
13048;SDS011;6591;51.446;5.404;2024-03-25T03:06:56;10.77;;;5.90;;
13048;SDS011;6591;51.446;5.404;2024-03-25T03:09:22;13.50;;;6.10;;
13048;SDS011;6591;51.446;5.404;2024-03-25T03:11:49;17.47;;;6.47;;
13048;SDS011;6591;51.446;5.404;2024-03-25T03:14:15;14.60;;;6.20;;
13048;SDS011;6591;51.446;5.404;2024-03-25T03:16:41;12.97;;;6.00;;
13048;SDS011;6591;51.446;5.404;2024-03-25T03:19:07;11.90;;;6.33;;
13048;SDS011;6591;51.446;5.404;2024-03-25T03:21:33;14.50;;;6.40;;
13048;SDS011;6591;51.446;5.404;2024-03-25T03:23:59;13.63;;;6.03;;
13048;SDS011;6591;51.446;5.404;2024-03-25T03:26:26;16.97;;;6.57;;
13048;SDS011;6591;51.446;5.404;2024-03-25T03:28:55;11.93;;;6.27;;
13048;SDS011;6591;51.446;5.404;2024-03-25T03:31:23;13.77;;;5.70;;
13048;SDS011;6591;51.446;5.404;2024-03-25T03:33:50;13.53;;;6.23;;
13048;SDS011;6591;51.446;5.404;2024-03-25T03:36:19;13.23;;;5.93;;
13048;SDS011;6591;51.446;5.404;2024-03-25T03:38:49;14.10;;;6.10;;
13048;SDS011;6591;51.446;5.404;2024-03-25T03:41:17;15.43;;;6.23;;
13048;SDS011;6591;51.446;5.404;2024-03-25T03:43:43;11.73;;;6.20;;
13048;SDS011;6591;51.446;5.404;2024-03-25T03:46:09;14.83;;;6.77;;
13048;SDS011;6591;51.446;5.404;2024-03-25T03:48:36;11.47;;;6.20;;
13048;SDS011;6591;51.446;5.404;2024-03-25T03:51:06;12.07;;;6.50;;
13048;SDS011;6591;51.446;5.404;2024-03-25T03:53:34;13.40;;;6.37;;
13048;SDS011;6591;51.446;5.404;2024-03-25T03:56:02;11.13;;;5.50;;
13048;SDS011;6591;51.446;5.404;2024-03-25T03:58:31;9.70;;;6.20;;
13048;SDS011;6591;51.446;5.404;2024-03-25T04:00:57;15.03;;;6.97;;
13048;SDS011;6591;51.446;5.404;2024-03-25T04:03:23;10.73;;;6.13;;
13048;SDS011;6591;51.446;5.404;2024-03-25T04:05:50;13.77;;;7.17;;
13048;SDS011;6591;51.446;5.404;2024-03-25T04:08:16;16.33;;;7.57;;
13048;SDS011;6591;51.446;5.404;2024-03-25T04:10:43;9.80;;;6.30;;
13048;SDS011;6591;51.446;5.404;2024-03-25T04:13:11;11.80;;;6.73;;
13048;SDS011;6591;51.446;5.404;2024-03-25T04:15:43;12.30;;;6.27;;
13048;SDS011;6591;51.446;5.404;2024-03-25T04:18:09;11.43;;;7.00;;
13048;SDS011;6591;51.446;5.404;2024-03-25T04:20:39;11.97;;;6.50;;
13048;SDS011;6591;51.446;5.404;2024-03-25T04:23:07;16.03;;;7.17;;
13048;SDS011;6591;51.446;5.404;2024-03-25T04:25:34;10.90;;;6.33;;
13048;SDS011;6591;51.446;5.404;2024-03-25T04:28:03;15.50;;;6.57;;
13048;SDS011;6591;51.446;5.404;2024-03-25T04:30:34;10.20;;;6.37;;
13048;SDS011;6591;51.446;5.404;2024-03-25T04:33:00;10.57;;;6.50;;
13048;SDS011;6591;51.446;5.404;2024-03-25T04:35:32;12.60;;;6.10;;
13048;SDS011;6591;51.446;5.404;2024-03-25T04:37:58;11.87;;;6.50;;
13048;SDS011;6591;51.446;5.404;2024-03-25T04:40:24;11.00;;;6.30;;
13048;SDS011;6591;51.446;5.404;2024-03-25T04:42:50;10.13;;;6.57;;
13048;SDS011;6591;51.446;5.404;2024-03-25T04:45:16;9.10;;;6.27;;
13048;SDS011;6591;51.446;5.404;2024-03-25T04:47:43;11.30;;;6.30;;
13048;SDS011;6591;51.446;5.404;2024-03-25T04:50:09;12.27;;;7.63;;
13048;SDS011;6591;51.446;5.404;2024-03-25T04:52:35;10.67;;;7.00;;
13048;SDS011;6591;51.446;5.404;2024-03-25T04:55:02;10.27;;;6.43;;
13048;SDS011;6591;51.446;5.404;2024-03-25T04:57:28;10.20;;;7.07;;
13048;SDS011;6591;51.446;5.404;2024-03-25T04:59:54;13.20;;;6.60;;
13048;SDS011;6591;51.446;5.404;2024-03-25T05:02:20;9.43;;;6.23;;
13048;SDS011;6591;51.446;5.404;2024-03-25T05:04:46;11.47;;;6.90;;
13048;SDS011;6591;51.446;5.404;2024-03-25T05:07:13;12.10;;;7.50;;
13048;SDS011;6591;51.446;5.404;2024-03-25T05:09:39;13.30;;;7.03;;
13048;SDS011;6591;51.446;5.404;2024-03-25T05:12:05;13.97;;;8.10;;
13048;SDS011;6591;51.446;5.404;2024-03-25T05:14:32;13.97;;;8.23;;
13048;SDS011;6591;51.446;5.404;2024-03-25T05:16:58;11.53;;;7.17;;
13048;SDS011;6591;51.446;5.404;2024-03-25T05:19:24;11.87;;;8.23;;
13048;SDS011;6591;51.446;5.404;2024-03-25T05:21:50;14.03;;;8.13;;
13048;SDS011;6591;51.446;5.404;2024-03-25T05:24:16;11.87;;;7.57;;
13048;SDS011;6591;51.446;5.404;2024-03-25T05:26:42;13.90;;;7.73;;
13048;SDS011;6591;51.446;5.404;2024-03-25T05:29:08;14.27;;;8.40;;
13048;SDS011;6591;51.446;5.404;2024-03-25T05:31:35;15.93;;;8.33;;
13048;SDS011;6591;51.446;5.404;2024-03-25T05:34:01;11.57;;;7.43;;
13048;SDS011;6591;51.446;5.404;2024-03-25T05:36:28;12.53;;;7.93;;
13048;SDS011;6591;51.446;5.404;2024-03-25T05:38:55;13.10;;;8.50;;
13048;SDS011;6591;51.446;5.404;2024-03-25T05:41:22;14.47;;;8.67;;
13048;SDS011;6591;51.446;5.404;2024-03-25T05:43:48;11.47;;;7.90;;
13048;SDS011;6591;51.446;5.404;2024-03-25T05:46:14;11.97;;;7.60;;
13048;SDS011;6591;51.446;5.404;2024-03-25T05:48:40;12.40;;;8.07;;
13048;SDS011;6591;51.446;5.404;2024-03-25T05:51:07;10.83;;;8.20;;
13048;SDS011;6591;51.446;5.404;2024-03-25T05:53:33;12.90;;;8.23;;
13048;SDS011;6591;51.446;5.404;2024-03-25T05:55:59;53.13;;;10.73;;
13048;SDS011;6591;51.446;5.404;2024-03-25T05:58:26;12.70;;;8.30;;
13048;SDS011;6591;51.446;5.404;2024-03-25T06:00:53;12.97;;;8.27;;
13048;SDS011;6591;51.446;5.404;2024-03-25T06:03:19;25.37;;;9.33;;
13048;SDS011;6591;51.446;5.404;2024-03-25T06:05:47;11.27;;;7.53;;
13048;SDS011;6591;51.446;5.404;2024-03-25T06:08:13;11.97;;;8.33;;
13048;SDS011;6591;51.446;5.404;2024-03-25T06:10:53;14.43;;;8.27;;
13048;SDS011;6591;51.446;5.404;2024-03-25T06:13:19;13.33;;;9.70;;
13048;SDS011;6591;51.446;5.404;2024-03-25T06:15:46;14.33;;;9.23;;
13048;SDS011;6591;51.446;5.404;2024-03-25T06:18:12;15.17;;;9.13;;
13048;SDS011;6591;51.446;5.404;2024-03-25T06:20:39;14.53;;;9.97;;
13048;SDS011;6591;51.446;5.404;2024-03-25T06:23:05;11.77;;;8.33;;
13048;SDS011;6591;51.446;5.404;2024-03-25T06:25:31;12.70;;;8.90;;
13048;SDS011;6591;51.446;5.404;2024-03-25T06:27:58;15.83;;;10.07;;
13048;SDS011;6591;51.446;5.404;2024-03-25T06:30:24;14.07;;;8.87;;
13048;SDS011;6591;51.446;5.404;2024-03-25T06:33:09;18.13;;;9.00;;
13048;SDS011;6591;51.446;5.404;2024-03-25T06:35:53;12.53;;;8.47;;
13048;SDS011;6591;51.446;5.404;2024-03-25T06:38:19;14.73;;;9.53;;
13048;SDS011;6591;51.446;5.404;2024-03-25T06:40:46;16.37;;;9.13;;
13048;SDS011;6591;51.446;5.404;2024-03-25T06:43:12;16.97;;;9.17;;
13048;SDS011;6591;51.446;5.404;2024-03-25T06:45:39;17.93;;;10.20;;
13048;SDS011;6591;51.446;5.404;2024-03-25T06:48:05;20.63;;;9.13;;
13048;SDS011;6591;51.446;5.404;2024-03-25T06:50:31;17.10;;;9.27;;
13048;SDS011;6591;51.446;5.404;2024-03-25T06:52:57;19.90;;;9.73;;
13048;SDS011;6591;51.446;5.404;2024-03-25T06:55:23;15.80;;;9.67;;
13048;SDS011;6591;51.446;5.404;2024-03-25T06:57:53;14.80;;;9.30;;
13048;SDS011;6591;51.446;5.404;2024-03-25T07:00:19;16.90;;;9.50;;
13048;SDS011;6591;51.446;5.404;2024-03-25T07:02:48;17.70;;;10.13;;
13048;SDS011;6591;51.446;5.404;2024-03-25T07:05:14;19.23;;;10.67;;
13048;SDS011;6591;51.446;5.404;2024-03-25T07:07:40;21.33;;;10.10;;
13048;SDS011;6591;51.446;5.404;2024-03-25T07:10:07;20.43;;;10.87;;
13048;SDS011;6591;51.446;5.404;2024-03-25T07:12:33;21.37;;;11.60;;
13048;SDS011;6591;51.446;5.404;2024-03-25T07:14:59;28.53;;;11.83;;
13048;SDS011;6591;51.446;5.404;2024-03-25T07:17:26;27.60;;;12.40;;
13048;SDS011;6591;51.446;5.404;2024-03-25T07:19:52;26.93;;;11.50;;
13048;SDS011;6591;51.446;5.404;2024-03-25T07:22:18;27.60;;;10.83;;
13048;SDS011;6591;51.446;5.404;2024-03-25T07:24:44;24.67;;;12.13;;
13048;SDS011;6591;51.446;5.404;2024-03-25T07:27:10;23.27;;;11.03;;
13048;SDS011;6591;51.446;5.404;2024-03-25T07:29:37;22.43;;;10.83;;
13048;SDS011;6591;51.446;5.404;2024-03-25T07:32:04;20.93;;;10.37;;
13048;SDS011;6591;51.446;5.404;2024-03-25T07:34:30;23.03;;;11.37;;
13048;SDS011;6591;51.446;5.404;2024-03-25T07:36:56;15.60;;;10.23;;
13048;SDS011;6591;51.446;5.404;2024-03-25T07:39:22;19.83;;;11.63;;
13048;SDS011;6591;51.446;5.404;2024-03-25T07:41:52;21.57;;;11.33;;
13048;SDS011;6591;51.446;5.404;2024-03-25T07:44:18;22.07;;;11.87;;
13048;SDS011;6591;51.446;5.404;2024-03-25T07:46:45;22.40;;;11.77;;
13048;SDS011;6591;51.446;5.404;2024-03-25T07:49:11;21.87;;;12.27;;
13048;SDS011;6591;51.446;5.404;2024-03-25T07:51:37;22.63;;;12.00;;
13048;SDS011;6591;51.446;5.404;2024-03-25T07:54:04;20.43;;;12.63;;
13048;SDS011;6591;51.446;5.404;2024-03-25T07:56:31;24.17;;;13.27;;
13048;SDS011;6591;51.446;5.404;2024-03-25T07:59:02;22.07;;;13.47;;
13048;SDS011;6591;51.446;5.404;2024-03-25T08:01:29;24.70;;;12.97;;
13048;SDS011;6591;51.446;5.404;2024-03-25T08:03:55;20.90;;;12.57;;
13048;SDS011;6591;51.446;5.404;2024-03-25T08:06:21;20.63;;;12.40;;
13048;SDS011;6591;51.446;5.404;2024-03-25T08:08:47;23.97;;;13.83;;
13048;SDS011;6591;51.446;5.404;2024-03-25T08:11:13;22.80;;;14.03;;
13048;SDS011;6591;51.446;5.404;2024-03-25T08:13:40;26.57;;;14.37;;
13048;SDS011;6591;51.446;5.404;2024-03-25T08:16:06;28.37;;;15.27;;
13048;SDS011;6591;51.446;5.404;2024-03-25T08:18:33;24.67;;;14.30;;
13048;SDS011;6591;51.446;5.404;2024-03-25T08:20:59;22.20;;;14.63;;
13048;SDS011;6591;51.446;5.404;2024-03-25T08:23:25;29.40;;;16.13;;
13048;SDS011;6591;51.446;5.404;2024-03-25T08:25:51;26.77;;;15.97;;
13048;SDS011;6591;51.446;5.404;2024-03-25T08:28:17;25.93;;;15.07;;
13048;SDS011;6591;51.446;5.404;2024-03-25T08:30:43;30.53;;;16.87;;
13048;SDS011;6591;51.446;5.404;2024-03-25T08:33:09;29.23;;;16.80;;
13048;SDS011;6591;51.446;5.404;2024-03-25T08:35:35;26.67;;;15.97;;
13048;SDS011;6591;51.446;5.404;2024-03-25T08:38:03;25.77;;;15.53;;
13048;SDS011;6591;51.446;5.404;2024-03-25T08:40:29;27.17;;;15.17;;
13048;SDS011;6591;51.446;5.404;2024-03-25T08:42:55;22.13;;;14.77;;
13048;SDS011;6591;51.446;5.404;2024-03-25T08:45:21;23.03;;;15.10;;
13048;SDS011;6591;51.446;5.404;2024-03-25T08:47:47;26.90;;;15.67;;
13048;SDS011;6591;51.446;5.404;2024-03-25T08:50:13;22.63;;;14.03;;
13048;SDS011;6591;51.446;5.404;2024-03-25T08:52:39;20.83;;;13.67;;
13048;SDS011;6591;51.446;5.404;2024-03-25T08:55:06;21.50;;;13.47;;
13048;SDS011;6591;51.446;5.404;2024-03-25T08:57:32;19.40;;;13.10;;
13048;SDS011;6591;51.446;5.404;2024-03-25T08:59:58;17.73;;;13.33;;
13048;SDS011;6591;51.446;5.404;2024-03-25T09:02:24;19.07;;;11.83;;
13048;SDS011;6591;51.446;5.404;2024-03-25T09:04:50;19.90;;;11.73;;
13048;SDS011;6591;51.446;5.404;2024-03-25T09:07:17;16.07;;;10.90;;
13048;SDS011;6591;51.446;5.404;2024-03-25T09:09:43;15.13;;;10.80;;
13048;SDS011;6591;51.446;5.404;2024-03-25T09:12:27;17.57;;;10.63;;
13048;SDS011;6591;51.446;5.404;2024-03-25T09:14:53;16.80;;;11.20;;
13048;SDS011;6591;51.446;5.404;2024-03-25T09:17:19;16.13;;;11.07;;
13048;SDS011;6591;51.446;5.404;2024-03-25T09:19:45;13.97;;;9.00;;
13048;SDS011;6591;51.446;5.404;2024-03-25T09:22:11;16.27;;;10.17;;
13048;SDS011;6591;51.446;5.404;2024-03-25T09:24:37;19.23;;;11.50;;
13048;SDS011;6591;51.446;5.404;2024-03-25T09:27:03;13.23;;;9.67;;
13048;SDS011;6591;51.446;5.404;2024-03-25T09:29:29;12.87;;;9.00;;
13048;SDS011;6591;51.446;5.404;2024-03-25T09:31:56;15.47;;;9.90;;
13048;SDS011;6591;51.446;5.404;2024-03-25T09:34:22;13.07;;;9.33;;
13048;SDS011;6591;51.446;5.404;2024-03-25T09:36:48;13.20;;;8.33;;
13048;SDS011;6591;51.446;5.404;2024-03-25T09:39:14;13.07;;;8.70;;
13048;SDS011;6591;51.446;5.404;2024-03-25T09:41:42;12.47;;;8.00;;
13048;SDS011;6591;51.446;5.404;2024-03-25T09:44:09;14.47;;;8.47;;
13048;SDS011;6591;51.446;5.404;2024-03-25T09:46:35;13.37;;;8.20;;
13048;SDS011;6591;51.446;5.404;2024-03-25T09:49:02;14.90;;;8.10;;
13048;SDS011;6591;51.446;5.404;2024-03-25T09:51:31;12.00;;;7.30;;
13048;SDS011;6591;51.446;5.404;2024-03-25T09:53:57;11.13;;;7.10;;
13048;SDS011;6591;51.446;5.404;2024-03-25T09:56:23;10.83;;;7.10;;
13048;SDS011;6591;51.446;5.404;2024-03-25T09:58:49;11.83;;;7.90;;
13048;SDS011;6591;51.446;5.404;2024-03-25T10:01:16;11.93;;;7.60;;
13048;SDS011;6591;51.446;5.404;2024-03-25T10:03:42;11.23;;;7.07;;
13048;SDS011;6591;51.446;5.404;2024-03-25T10:06:09;8.57;;;6.10;;
13048;SDS011;6591;51.446;5.404;2024-03-25T10:08:35;8.73;;;6.17;;
13048;SDS011;6591;51.446;5.404;2024-03-25T10:11:02;10.47;;;6.37;;
13048;SDS011;6591;51.446;5.404;2024-03-25T10:13:28;10.60;;;6.93;;
13048;SDS011;6591;51.446;5.404;2024-03-25T10:15:54;11.20;;;5.90;;
13048;SDS011;6591;51.446;5.404;2024-03-25T10:18:21;9.63;;;5.47;;
13048;SDS011;6591;51.446;5.404;2024-03-25T10:20:48;6.67;;;4.57;;
13048;SDS011;6591;51.446;5.404;2024-03-25T10:23:15;7.50;;;4.13;;
13048;SDS011;6591;51.446;5.404;2024-03-25T10:25:52;7.97;;;4.73;;
13048;SDS011;6591;51.446;5.404;2024-03-25T10:28:19;6.57;;;4.67;;
13048;SDS011;6591;51.446;5.404;2024-03-25T10:30:45;7.10;;;3.93;;
13048;SDS011;6591;51.446;5.404;2024-03-25T10:33:11;5.97;;;4.10;;
13048;SDS011;6591;51.446;5.404;2024-03-25T10:35:38;6.67;;;4.17;;
13048;SDS011;6591;51.446;5.404;2024-03-25T10:38:09;5.50;;;3.25;;
13048;SDS011;6591;51.446;5.404;2024-03-25T10:40:39;3.53;;;2.57;;
13048;SDS011;6591;51.446;5.404;2024-03-25T10:43:09;4.03;;;2.33;;
13048;SDS011;6591;51.446;5.404;2024-03-25T10:45:45;4.68;;;2.80;;
13048;SDS011;6591;51.446;5.404;2024-03-25T10:48:17;5.35;;;3.47;;
13048;SDS011;6591;51.446;5.404;2024-03-25T10:50:51;5.40;;;3.40;;
13048;SDS011;6591;51.446;5.404;2024-03-25T10:53:20;7.03;;;3.88;;
13048;SDS011;6591;51.446;5.404;2024-03-25T10:55:55;5.80;;;4.10;;
13048;SDS011;6591;51.446;5.404;2024-03-25T10:58:22;5.15;;;3.75;;
13048;SDS011;6591;51.446;5.404;2024-03-25T11:00:50;6.22;;;3.80;;
13048;SDS011;6591;51.446;5.404;2024-03-25T11:03:24;5.95;;;3.38;;
13048;SDS011;6591;51.446;5.404;2024-03-25T11:05:51;7.18;;;3.38;;
13048;SDS011;6591;51.446;5.404;2024-03-25T11:08:18;4.28;;;3.03;;
13048;SDS011;6591;51.446;5.404;2024-03-25T11:10:47;6.03;;;3.05;;
13048;SDS011;6591;51.446;5.404;2024-03-25T11:13:18;6.65;;;2.85;;
13048;SDS011;6591;51.446;5.404;2024-03-25T11:15:45;4.50;;;2.80;;
13048;SDS011;6591;51.446;5.404;2024-03-25T11:18:17;4.25;;;2.90;;
13048;SDS011;6591;51.446;5.404;2024-03-25T11:21:02;4.15;;;2.70;;
13048;SDS011;6591;51.446;5.404;2024-03-25T11:23:43;3.42;;;2.40;;
13048;SDS011;6591;51.446;5.404;2024-03-25T11:28:48;3.58;;;2.53;;
13048;SDS011;6591;51.446;5.404;2024-03-25T11:31:14;4.13;;;2.30;;
13048;SDS011;6591;51.446;5.404;2024-03-25T11:33:44;3.85;;;2.33;;
13048;SDS011;6591;51.446;5.404;2024-03-25T11:36:10;4.57;;;2.42;;
13048;SDS011;6591;51.446;5.404;2024-03-25T11:38:36;4.35;;;1.98;;
13048;SDS011;6591;51.446;5.404;2024-03-25T11:41:05;3.90;;;2.17;;
13048;SDS011;6591;51.446;5.404;2024-03-25T11:43:32;5.03;;;2.40;;
13048;SDS011;6591;51.446;5.404;2024-03-25T11:45:59;4.57;;;2.17;;
13048;SDS011;6591;51.446;5.404;2024-03-25T11:48:25;3.58;;;2.33;;
13048;SDS011;6591;51.446;5.404;2024-03-25T11:50:52;3.55;;;2.20;;
13048;SDS011;6591;51.446;5.404;2024-03-25T11:53:18;3.90;;;2.10;;
13048;SDS011;6591;51.446;5.404;2024-03-25T11:55:47;3.92;;;2.20;;
13048;SDS011;6591;51.446;5.404;2024-03-25T11:58:14;2.83;;;1.90;;
13048;SDS011;6591;51.446;5.404;2024-03-25T12:00:44;4.22;;;2.35;;
13048;SDS011;6591;51.446;5.404;2024-03-25T12:03:17;4.97;;;2.58;;
13048;SDS011;6591;51.446;5.404;2024-03-25T12:05:44;3.78;;;2.17;;
13048;SDS011;6591;51.446;5.404;2024-03-25T12:08:10;3.00;;;2.10;;
13048;SDS011;6591;51.446;5.404;2024-03-25T12:10:37;2.65;;;1.90;;
13048;SDS011;6591;51.446;5.404;2024-03-25T12:13:23;4.60;;;2.13;;
13048;SDS011;6591;51.446;5.404;2024-03-25T12:15:51;3.15;;;1.70;;
13048;SDS011;6591;51.446;5.404;2024-03-25T12:18:18;2.95;;;1.80;;
13048;SDS011;6591;51.446;5.404;2024-03-25T12:20:47;1.95;;;1.50;;
13048;SDS011;6591;51.446;5.404;2024-03-25T12:23:13;3.13;;;1.83;;
13048;SDS011;6591;51.446;5.404;2024-03-25T12:25:40;2.63;;;1.70;;
13048;SDS011;6591;51.446;5.404;2024-03-25T12:28:09;3.38;;;2.03;;
13048;SDS011;6591;51.446;5.404;2024-03-25T12:30:52;2.78;;;1.60;;
13048;SDS011;6591;51.446;5.404;2024-03-25T12:33:23;2.97;;;1.90;;
13048;SDS011;6591;51.446;5.404;2024-03-25T12:35:50;2.78;;;1.85;;
13048;SDS011;6591;51.446;5.404;2024-03-25T12:38:24;2.30;;;1.90;;
13048;SDS011;6591;51.446;5.404;2024-03-25T12:41:03;1.85;;;1.38;;
13048;SDS011;6591;51.446;5.404;2024-03-25T12:43:31;3.22;;;1.52;;
13048;SDS011;6591;51.446;5.404;2024-03-25T12:45:59;3.53;;;2.30;;
13048;SDS011;6591;51.446;5.404;2024-03-25T12:48:25;2.78;;;1.80;;
13048;SDS011;6591;51.446;5.404;2024-03-25T12:50:51;3.17;;;1.88;;
13048;SDS011;6591;51.446;5.404;2024-03-25T12:53:19;3.13;;;1.75;;
13048;SDS011;6591;51.446;5.404;2024-03-25T12:55:45;2.08;;;1.73;;
13048;SDS011;6591;51.446;5.404;2024-03-25T12:58:12;2.55;;;1.67;;
13048;SDS011;6591;51.446;5.404;2024-03-25T13:00:38;3.92;;;2.05;;
13048;SDS011;6591;51.446;5.404;2024-03-25T13:03:06;3.58;;;1.73;;
13048;SDS011;6591;51.446;5.404;2024-03-25T13:05:36;2.58;;;1.65;;
13048;SDS011;6591;51.446;5.404;2024-03-25T13:08:02;2.85;;;1.73;;
13048;SDS011;6591;51.446;5.404;2024-03-25T13:10:29;2.72;;;1.80;;
13048;SDS011;6591;51.446;5.404;2024-03-25T13:12:56;3.20;;;1.80;;
13048;SDS011;6591;51.446;5.404;2024-03-25T13:15:22;3.75;;;1.70;;
13048;SDS011;6591;51.446;5.404;2024-03-25T13:17:48;3.22;;;1.58;;
13048;SDS011;6591;51.446;5.404;2024-03-25T13:20:15;2.45;;;1.58;;
13048;SDS011;6591;51.446;5.404;2024-03-25T13:22:41;3.85;;;1.80;;
13048;SDS011;6591;51.446;5.404;2024-03-25T13:25:08;2.58;;;1.70;;
13048;SDS011;6591;51.446;5.404;2024-03-25T13:27:34;2.78;;;1.60;;
13048;SDS011;6591;51.446;5.404;2024-03-25T13:30:00;2.70;;;1.80;;
13048;SDS011;6591;51.446;5.404;2024-03-25T13:32:26;3.22;;;1.70;;
13048;SDS011;6591;51.446;5.404;2024-03-25T13:34:53;2.65;;;1.85;;
13048;SDS011;6591;51.446;5.404;2024-03-25T13:37:19;3.08;;;1.85;;
13048;SDS011;6591;51.446;5.404;2024-03-25T13:39:44;2.72;;;1.77;;
13048;SDS011;6591;51.446;5.404;2024-03-25T13:42:11;2.83;;;1.77;;
13048;SDS011;6591;51.446;5.404;2024-03-25T13:44:37;3.08;;;1.40;;
13048;SDS011;6591;51.446;5.404;2024-03-25T13:47:03;2.60;;;1.70;;
13048;SDS011;6591;51.446;5.404;2024-03-25T13:49:29;3.25;;;1.90;;
13048;SDS011;6591;51.446;5.404;2024-03-25T13:51:56;3.72;;;1.98;;
13048;SDS011;6591;51.446;5.404;2024-03-25T13:54:28;3.17;;;1.75;;
13048;SDS011;6591;51.446;5.404;2024-03-25T13:56:58;2.78;;;1.83;;
13048;SDS011;6591;51.446;5.404;2024-03-25T13:59:25;1.80;;;1.35;;
13048;SDS011;6591;51.446;5.404;2024-03-25T14:01:51;2.67;;;1.70;;
13048;SDS011;6591;51.446;5.404;2024-03-25T14:04:19;2.85;;;1.52;;
13048;SDS011;6591;51.446;5.404;2024-03-25T14:06:46;3.28;;;1.70;;
13048;SDS011;6591;51.446;5.404;2024-03-25T14:09:28;3.53;;;1.60;;
13048;SDS011;6591;51.446;5.404;2024-03-25T14:11:54;2.38;;;1.48;;
13048;SDS011;6591;51.446;5.404;2024-03-25T14:14:20;2.97;;;1.60;;
13048;SDS011;6591;51.446;5.404;2024-03-25T14:16:46;4.10;;;1.48;;
13048;SDS011;6591;51.446;5.404;2024-03-25T14:19:12;2.30;;;1.52;;
13048;SDS011;6591;51.446;5.404;2024-03-25T14:21:38;2.40;;;1.70;;
13048;SDS011;6591;51.446;5.404;2024-03-25T14:24:05;2.33;;;1.60;;
13048;SDS011;6591;51.446;5.404;2024-03-25T14:26:32;3.20;;;1.70;;
13048;SDS011;6591;51.446;5.404;2024-03-25T14:28:59;2.30;;;1.45;;
13048;SDS011;6591;51.446;5.404;2024-03-25T14:31:25;2.22;;;1.42;;
13048;SDS011;6591;51.446;5.404;2024-03-25T14:33:54;2.33;;;1.77;;
13048;SDS011;6591;51.446;5.404;2024-03-25T14:36:20;2.38;;;1.60;;
13048;SDS011;6591;51.446;5.404;2024-03-25T14:38:48;2.28;;;1.75;;
13048;SDS011;6591;51.446;5.404;2024-03-25T14:41:18;2.53;;;1.70;;
13048;SDS011;6591;51.446;5.404;2024-03-25T14:43:46;6.50;;;1.70;;
13048;SDS011;6591;51.446;5.404;2024-03-25T14:46:14;2.05;;;1.52;;
13048;SDS011;6591;51.446;5.404;2024-03-25T14:48:40;2.80;;;1.83;;
13048;SDS011;6591;51.446;5.404;2024-03-25T14:51:06;2.90;;;1.60;;
13048;SDS011;6591;51.446;5.404;2024-03-25T14:53:33;3.10;;;1.83;;
13048;SDS011;6591;51.446;5.404;2024-03-25T14:55:59;2.42;;;1.80;;